Time;durP1;ratioP1;P1;durP2;ratioP2;P2;SDS_P1;SDS_P2;PMS_P1;PMS_P2;Temp;Humidity;BMP_temperature;BMP_pressure;BME280_temperature;BME280_humidity;BME280_pressure;Samples;Min_cycle;Max_cycle;Signal;HPM_P1;HPM_P2
2023/12/22 00:02:34;;;;;;;1.10;1.00;;;;;;;;;;6066357;23;20002;-93
2023/12/22 00:08:50;;;;;;;0.90;0.60;;;;;;;;;;6052626;23;20007;-93
2023/12/22 00:10:57;;;;;;;3.55;0.70;;;;;;;;;;6185511;23;20013;-92
2023/12/22 00:13:33;;;;;;;1.35;0.80;;;;;;;;;;6197616;23;20036;-94
2023/12/22 00:16:19;;;;;;;;;;;;;;;;;;;;;
2023/12/22 00:18:57;;;;;;;3.65;0.60;;;;;;;;;;6219215;23;20099;-93
2023/12/22 00:21:27;;;;;;;1.20;0.80;;;;;;;;;;6202108;23;20008;-93
2023/12/22 00:26:46;;;;;;;3.05;0.70;;;;;;;;;;6197598;22;20030;-93
2023/12/22 00:30:25;;;;;;;;;;;;;;;;;;;;;
2023/12/22 00:32:58;;;;;;;;;;;;;;;;;;;;;
2023/12/22 00:38:50;;;;;;;1.63;0.40;;;;;;;;;;6224849;23;20606;-95
2023/12/22 00:41:16;;;;;;;2.10;1.13;;;;;;;;;;6195864;23;20368;-95
2023/12/22 00:47:38;;;;;;;0.70;0.50;;;;;;;;;;6223427;23;20035;-93
2023/12/22 00:53:46;;;;;;;5.10;0.88;;;;;;;;;;6224342;23;20073;-95
2023/12/22 00:56:23;;;;;;;1.45;0.70;;;;;;;;;;6100091;23;20006;-94
2023/12/22 01:02:21;;;;;;;2.00;1.13;;;;;;;;;;6076585;23;20014;-93
2023/12/22 01:14:40;;;;;;;1.10;0.50;;;;;;;;;;5877394;24;20051;-93
2023/12/22 01:18:03;;;;;;;;;;;;;;;;;;;;;
2023/12/22 01:20:30;;;;;;;;;;;;;;;;;;5905646;24;20010;-96
2023/12/22 01:23:45;;;;;;;1.10;0.80;;;;;;;;;;5937701;24;19903;-93
2023/12/22 01:36:45;;;;;;;2.50;0.52;;;;;;;;;;5849992;24;20072;-95
2023/12/22 01:42:17;;;;;;;2.80;0.80;;;;;;;;;;5795501;24;20011;-94
2023/12/22 01:52:00;;;;;;;3.53;0.82;;;;;;;;;;5876824;24;20025;-94
2023/12/22 01:54:44;;;;;;;5.10;0.98;;;;;;;;;;5951941;24;20009;-95
2023/12/22 01:57:29;;;;;;;;;;;;;;;;;;;;;
2023/12/22 01:59:55;;;;;;;1.95;0.50;;;;;;;;;;6047186;23;20090;-93
2023/12/22 02:02:25;;;;;;;3.97;1.13;;;;;;;;;;6048756;23;20025;-94
2023/12/22 02:05:29;;;;;;;;;;;;;;;;;;;;;
2023/12/22 02:07:59;;;;;;;5.25;0.82;;;;;;;;;;6061442;23;20015;-95
2023/12/22 02:13:50;;;;;;;4.50;1.05;;;;;;;;;;6180405;23;20013;-95
2023/12/22 02:16:37;;;;;;;4.38;0.88;;;;;;;;;;6169700;23;20005;-95
2023/12/22 02:22:39;;;;;;;4.80;1.17;;;;;;;;;;6140808;23;20024;-95
2023/12/22 02:25:21;;;;;;;5.28;1.33;;;;;;;;;;6163223;23;20001;-94
2023/12/22 02:34:42;;;;;;;;;;;;;;;;;;;;;
2023/12/22 02:37:23;;;;;;;;;;;;;;;;;;;;;
2023/12/22 02:40:21;;;;;;;5.22;2.22;;;;;;;;;;6223318;23;20087;-95
2023/12/22 02:42:51;;;;;;;4.68;1.58;;;;;;;;;;6220968;23;20059;-93
2023/12/22 02:48:25;;;;;;;8.48;2.22;;;;;;;;;;6223844;23;20000;-94
2023/12/22 02:51:18;;;;;;;4.93;1.83;;;;;;;;;;6216212;23;20039;-96
2023/12/22 02:53:50;;;;;;;4.45;1.42;;;;;;;;;;6212751;23;20036;-95
2023/12/22 02:56:49;;;;;;;;;;;;;;;;;;;;;
2023/12/22 02:59:37;;;;;;;3.85;1.33;;;;;;;;;;6222972;23;20005;-95
2023/12/22 03:02:24;;;;;;;4.70;2.10;;;;;;;;;;6223643;23;20019;-94
2023/12/22 07:36:53;;;;;;;9.82;3.03;;;;;;;;;;6207460;22;20262;-95
2023/12/22 07:39:20;;;;;;;7.57;2.92;;;;;;;;;;6193967;23;20503;-96
2023/12/22 07:41:46;;;;;;;5.57;2.75;;;;;;;;;;6192434;23;20460;-92
2023/12/22 07:44:12;;;;;;;5.05;3.03;;;;;;;;;;6194172;23;20004;-95
2023/12/22 07:46:39;;;;;;;4.50;2.10;;;;;;;;;;6191444;23;20009;-93
2023/12/22 07:49:05;;;;;;;6.80;2.42;;;;;;;;;;6191989;23;20389;-94
2023/12/22 07:51:31;;;;;;;8.35;3.17;;;;;;;;;;6191509;23;20004;-93
2023/12/22 07:53:57;;;;;;;4.18;2.10;;;;;;;;;;6191164;23;20098;-93
2023/12/22 07:56:23;;;;;;;6.47;3.13;;;;;;;;;;6191345;23;20496;-94
2023/12/22 07:58:49;;;;;;;5.82;3.50;;;;;;;;;;6193796;23;20004;-91
2023/12/22 08:01:15;;;;;;;5.05;2.67;;;;;;;;;;6197609;23;20001;-95
2023/12/22 08:03:43;;;;;;;7.25;2.85;;;;;;;;;;6222920;23;20079;-94
2023/12/22 08:06:10;;;;;;;9.15;2.22;;;;;;;;;;6196441;23;20362;-94
2023/12/22 08:08:36;;;;;;;3.80;1.70;;;;;;;;;;6196671;23;20048;-95
2023/12/22 08:11:04;;;;;;;6.68;2.13;;;;;;;;;;6223412;23;20039;-94
2023/12/22 08:13:32;;;;;;;4.43;1.60;;;;;;;;;;6195246;23;20028;-93
2023/12/22 08:15:58;;;;;;;5.28;2.50;;;;;;;;;;6195053;23;20025;-95
2023/12/22 08:18:24;;;;;;;6.78;2.00;;;;;;;;;;6214334;23;20024;-96
2023/12/22 08:20:50;;;;;;;5.30;2.05;;;;;;;;;;6214865;23;20003;-93
2023/12/22 08:23:16;;;;;;;6.18;1.95;;;;;;;;;;6214861;23;20009;-94
2023/12/22 08:25:43;;;;;;;4.60;2.17;;;;;;;;;;6215114;23;20060;-93
2023/12/22 08:28:09;;;;;;;3.30;2.15;;;;;;;;;;6215311;23;20005;-95
2023/12/22 08:30:35;;;;;;;11.50;4.00;;;;;;;;;;6214530;23;20099;-92
2023/12/22 08:33:03;;;;;;;8.70;4.95;;;;;;;;;;6190689;23;20012;-91
2023/12/22 08:35:29;;;;;;;14.88;7.70;;;;;;;;;;6189109;23;20009;-91
2023/12/22 08:37:58;;;;;;;5.75;5.25;;;;;;;;;;6214365;23;20046;-91
2023/12/22 08:40:26;;;;;;;6.65;4.88;;;;;;;;;;6212817;23;20484;-93
2023/12/22 08:42:59;;;;;;;6.20;5.60;;;;;;;;;;6212860;23;20001;-89
2023/12/22 08:45:29;;;;;;;7.45;6.85;;;;;;;;;;6213611;23;20334;-92
2023/12/22 08:47:57;;;;;;;6.75;6.15;;;;;;;;;;6189388;23;20064;-92
2023/12/22 08:50:24;;;;;;;6.05;3.88;;;;;;;;;;6189719;23;20041;-93
2023/12/22 09:09:27;;;;;;;6.13;3.65;;;;;;;;;;6192502;23;20024;-95
2023/12/22 09:12:08;;;;;;;5.60;4.55;;;;;;;;;;6171717;23;20023;-94
2023/12/22 09:15:00;;;;;;;6.10;5.15;;;;;;;;;;6185572;23;19989;-91
2023/12/22 09:17:44;;;;;;;5.28;4.78;;;;;;;;;;6158211;23;19997;-96
2023/12/22 09:29:50;;;;;;;4.47;2.85;;;;;;;;;;6227009;22;20032;-96
2023/12/22 09:32:49;;;;;;;5.25;4.05;;;;;;;;;;6198153;23;20005;-95
2023/12/22 09:38:09;;;;;;;6.20;4.28;;;;;;;;;;6142022;22;1569107;-93
2023/12/22 09:40:44;;;;;;;6.78;4.22;;;;;;;;;;6163717;23;20040;-96
2023/12/22 09:52:42;;;;;;;4.85;3.95;;;;;;;;;;6169314;23;20056;-94
2023/12/22 09:55:09;;;;;;;6.70;6.10;;;;;;;;;;6188780;22;20024;-92
2023/12/22 09:57:36;;;;;;;5.90;5.30;;;;;;;;;;6190550;23;20016;-91
2023/12/22 10:02:28;;;;;;;5.70;4.78;;;;;;;;;;6216514;22;20031;-92
2023/12/22 11:02:51;;;;;;;3.38;1.50;;;;;;;;;;6192554;22;20024;-92
2023/12/22 11:14:32;;;;;;;5.00;2.67;;;;;;;;;;6221675;23;20063;-95
2023/12/22 11:17:07;;;;;;;;;;;;;;;;;;6192927;23;20031;-95
2023/12/22 11:40:21;;;;;;;6.50;2.30;;;;;;;;;;6218385;23;20047;-95
2023/12/22 11:48:49;;;;;;;2.95;1.80;;;;;;;;;;6137266;23;20526;-90
2023/12/22 11:51:15;;;;;;;5.68;1.60;;;;;;;;;;6191946;23;20020;-92
2023/12/22 11:53:42;;;;;;;3.92;2.55;;;;;;;;;;6217208;23;20087;-92
2023/12/22 11:56:09;;;;;;;3.30;1.58;;;;;;;;;;6219884;23;20008;-94
2023/12/22 11:58:39;;;;;;;7.85;2.40;;;;;;;;;;6218158;23;20421;-96
2023/12/22 12:01:09;;;;;;;6.97;3.38;;;;;;;;;;6216213;23;20012;-95
2023/12/22 12:03:54;;;;;;;1.95;1.40;;;;;;;;;;6215835;23;20008;-92
2023/12/22 12:06:27;;;;;;;3.30;1.92;;;;;;;;;;6216508;23;20012;-94
2023/12/22 12:08:53;;;;;;;2.80;1.40;;;;;;;;;;6216824;23;20043;-93
2023/12/22 12:11:21;;;;;;;4.10;1.88;;;;;;;;;;6217010;23;20017;-91
2023/12/22 12:13:47;;;;;;;3.92;1.20;;;;;;;;;;6216451;23;20008;-90
2023/12/22 12:16:14;;;;;;;3.00;1.92;;;;;;;;;;6216736;23;20096;-92
2023/12/22 12:18:42;;;;;;;4.03;1.92;;;;;;;;;;6215920;23;20088;-91
2023/12/22 12:21:09;;;;;;;3.03;1.50;;;;;;;;;;6216428;23;20005;-91
2023/12/22 12:23:35;;;;;;;4.15;1.80;;;;;;;;;;6215953;23;20088;-93
2023/12/22 12:26:01;;;;;;;6.75;2.15;;;;;;;;;;6216003;23;20005;-93
2023/12/22 12:28:31;;;;;;;2.42;1.15;;;;;;;;;;6216288;23;20004;-94
2023/12/22 12:34:01;;;;;;;3.10;1.45;;;;;;;;;;6217798;23;20146;-94
2023/12/22 12:36:27;;;;;;;2.83;0.90;;;;;;;;;;6224835;22;19988;-88
2023/12/22 12:39:01;;;;;;;4.05;0.80;;;;;;;;;;6231345;23;20005;-91
2023/12/22 12:41:34;;;;;;;4.18;0.85;;;;;;;;;;6217829;23;20004;-90
2023/12/22 12:44:00;;;;;;;1.75;0.63;;;;;;;;;;6216274;23;20376;-91
2023/12/22 12:46:33;;;;;;;4.63;1.05;;;;;;;;;;6215718;23;20031;-92
2023/12/22 12:49:09;;;;;;;7.38;1.75;;;;;;;;;;6217088;23;20012;-91
2023/12/22 12:51:43;;;;;;;2.45;1.35;;;;;;;;;;6215828;23;20043;-90
2023/12/22 13:00:29;;;;;;;4.03;1.40;;;;;;;;;;6247109;23;20007;-93
2023/12/22 13:03:05;;;;;;;3.28;0.90;;;;;;;;;;6220235;23;20376;-90
2023/12/22 13:11:42;;;;;;;2.03;1.15;;;;;;;;;;6246937;23;20026;-91
2023/12/22 13:14:30;;;;;;;3.65;1.83;;;;;;;;;;6220753;23;20000;-92
2023/12/22 13:16:58;;;;;;;2.00;1.45;;;;;;;;;;6221843;23;20034;-92
2023/12/22 13:37:44;;;;;;;3.33;1.58;;;;;;;;;;6244641;22;20116;-93
2023/12/22 13:40:16;;;;;;;1.83;1.10;;;;;;;;;;6221156;23;20001;-95
2023/12/22 13:42:43;;;;;;;2.65;1.60;;;;;;;;;;6220237;23;20004;-93
2023/12/22 13:45:18;;;;;;;1.63;0.90;;;;;;;;;;6219973;23;20325;-94
2023/12/22 13:48:03;;;;;;;3.80;1.73;;;;;;;;;;6219591;23;20137;-94
2023/12/22 13:50:33;;;;;;;4.03;1.20;;;;;;;;;;6219875;23;20089;-92
2023/12/22 13:56:03;;;;;;;4.37;1.20;;;;;;;;;;6230607;22;20050;-94
2023/12/22 13:59:00;;;;;;;1.88;0.98;;;;;;;;;;6220105;23;20004;-93
2023/12/22 14:01:40;;;;;;;2.53;1.23;;;;;;;;;;6219760;23;20027;-95
2023/12/22 14:20:13;;;;;;;1.27;0.85;;;;;;;;;;6228364;22;20047;-92
2023/12/22 14:22:39;;;;;;;2.75;1.27;;;;;;;;;;6227728;22;20055;-87
2023/12/22 14:30:26;;;;;;;1.52;0.70;;;;;;;;;;6186598;23;20391;-91
2023/12/22 14:38:56;;;;;;;1.73;1.00;;;;;;;;;;6227714;22;20020;-93
2023/12/22 14:53:00;;;;;;;2.40;0.90;;;;;;;;;;6226390;22;20103;-94
2023/12/22 14:55:26;;;;;;;3.25;1.00;;;;;;;;;;6220744;23;20059;-94
2023/12/22 14:57:53;;;;;;;5.13;0.90;;;;;;;;;;6220241;23;20004;-94
2023/12/22 15:00:19;;;;;;;2.65;1.05;;;;;;;;;;6221792;23;20078;-93
2023/12/22 15:02:46;;;;;;;3.67;1.40;;;;;;;;;;6247227;23;20015;-94
2023/12/22 15:05:15;;;;;;;2.03;1.00;;;;;;;;;;6221399;23;20014;-94
2023/12/22 15:07:47;;;;;;;2.22;1.10;;;;;;;;;;6222752;23;20030;-95
2023/12/22 15:10:15;;;;;;;4.03;1.40;;;;;;;;;;6223107;23;20387;-96
2023/12/22 15:12:42;;;;;;;3.63;1.50;;;;;;;;;;6199072;23;20031;-95
2023/12/22 15:15:14;;;;;;;7.70;1.73;;;;;;;;;;6250536;23;20020;-94
2023/12/22 15:17:40;;;;;;;2.95;1.30;;;;;;;;;;6225087;23;20018;-93
2023/12/22 15:20:08;;;;;;;3.55;1.20;;;;;;;;;;6226869;23;20012;-94
2023/12/22 15:22:34;;;;;;;2.95;1.20;;;;;;;;;;6222726;23;20004;-93
2023/12/22 15:25:03;;;;;;;3.55;1.27;;;;;;;;;;6224593;23;20094;-93
2023/12/22 15:27:32;;;;;;;4.65;1.75;;;;;;;;;;6222793;23;20050;-96
2023/12/22 15:30:07;;;;;;;3.72;1.50;;;;;;;;;;6222405;23;20008;-95
2023/12/22 15:32:33;;;;;;;5.90;1.90;;;;;;;;;;6222321;23;20091;-96
2023/12/22 15:34:59;;;;;;;3.83;2.05;;;;;;;;;;6221946;23;20035;-93
2023/12/22 15:37:25;;;;;;;6.53;1.65;;;;;;;;;;6224392;23;20011;-93
2023/12/22 15:39:51;;;;;;;5.13;1.70;;;;;;;;;;6222718;23;20317;-95
2023/12/22 15:42:18;;;;;;;7.38;1.30;;;;;;;;;;6222234;23;20000;-94
2023/12/22 15:44:50;;;;;;;3.67;1.70;;;;;;;;;;6222460;23;20015;-95
2023/12/22 15:47:16;;;;;;;4.50;1.60;;;;;;;;;;6226322;23;20008;-95
2023/12/22 15:49:53;;;;;;;4.38;1.77;;;;;;;;;;6229411;23;20012;-96
2023/12/22 15:52:19;;;;;;;2.47;1.50;;;;;;;;;;6222315;23;20015;-92
2023/12/22 15:57:42;;;;;;;2.50;1.20;;;;;;;;;;6244961;22;20525;-95
2023/12/22 16:00:08;;;;;;;2.45;1.10;;;;;;;;;;6222990;23;20020;-94
2023/12/22 16:02:38;;;;;;;4.50;1.25;;;;;;;;;;6223268;23;20004;-94
2023/12/22 16:05:04;;;;;;;3.88;1.23;;;;;;;;;;6222896;23;20061;-95
2023/12/22 16:07:30;;;;;;;4.25;2.05;;;;;;;;;;6222404;23;20000;-90
2023/12/22 16:09:57;;;;;;;4.20;1.67;;;;;;;;;;6245695;22;20011;-90
2023/12/22 16:12:23;;;;;;;4.32;1.40;;;;;;;;;;6242460;23;20004;-94
2023/12/22 16:14:49;;;;;;;4.53;1.33;;;;;;;;;;6226485;23;20004;-96
2023/12/22 16:17:23;;;;;;;6.75;1.67;;;;;;;;;;6226829;23;20019;-95
2023/12/22 16:19:49;;;;;;;;;;;;;;;;;;6223418;23;20023;-95
2023/12/22 16:22:15;;;;;;;6.75;3.40;;;;;;;;;;6221598;23;19953;-96
2023/12/22 16:24:42;;;;;;;17.48;6.53;;;;;;;;;;6221392;23;20000;-95
2023/12/22 16:27:13;;;;;;;14.95;4.72;;;;;;;;;;6221731;23;20004;-94
2023/12/22 16:35:06;;;;;;;2.58;1.20;;;;;;;;;;6250876;22;20028;-94
2023/12/22 16:37:55;;;;;;;;;;;;;;;;;;;;;
2023/12/22 17:32:16;;;;;;;;;;;;;;;;;;;;;
2023/12/22 18:10:06;;;;;;;1.77;1.05;;;;;;;;;;6208325;22;20258;-94
2023/12/22 18:52:37;;;;;;;1.90;1.30;;;;;;;;;;6187095;22;20040;-96
2023/12/22 19:02:54;;;;;;;2.15;1.48;;;;;;;;;;6221531;22;20025;-96
2023/12/22 19:10:27;;;;;;;3.65;1.80;;;;;;;;;;6228829;22;20024;-90
2023/12/22 19:12:53;;;;;;;4.55;2.20;;;;;;;;;;6162494;23;20016;-92
2023/12/22 19:15:20;;;;;;;3.22;1.83;;;;;;;;;;6161927;23;20434;-92
2023/12/22 19:17:46;;;;;;;3.30;1.55;;;;;;;;;;6163155;23;20060;-91
2023/12/22 19:20:13;;;;;;;2.38;1.40;;;;;;;;;;6163831;23;20005;-93
2023/12/22 19:22:39;;;;;;;4.93;1.92;;;;;;;;;;6162663;23;20040;-90
2023/12/22 19:25:05;;;;;;;2.35;1.75;;;;;;;;;;6164458;23;20423;-89
2023/12/22 19:27:32;;;;;;;3.10;1.00;;;;;;;;;;6162030;23;20015;-92
2023/12/22 19:29:58;;;;;;;3.00;1.30;;;;;;;;;;6161345;23;20438;-89
2023/12/22 19:32:24;;;;;;;2.28;1.10;;;;;;;;;;6161696;23;20040;-90
2023/12/22 19:34:50;;;;;;;1.95;0.98;;;;;;;;;;6162686;23;20024;-90
2023/12/22 19:37:17;;;;;;;4.25;1.10;;;;;;;;;;6161970;23;20005;-89
2023/12/22 19:39:47;;;;;;;2.70;1.02;;;;;;;;;;6161542;23;20292;-88
2023/12/22 19:42:13;;;;;;;2.13;1.20;;;;;;;;;;6161296;23;20016;-90
2023/12/22 19:50:33;;;;;;;2.25;1.20;;;;;;;;;;6217478;23;20027;-91
2023/12/22 19:53:08;;;;;;;2.70;1.45;;;;;;;;;;6190744;23;20008;-93
2023/12/22 19:59:13;;;;;;;3.40;1.38;;;;;;;;;;6217334;23;20012;-91
2023/12/22 20:04:44;;;;;;;1.98;1.10;;;;;;;;;;6217094;23;20225;-91
2023/12/22 20:07:25;;;;;;;2.72;1.40;;;;;;;;;;6153811;23;20426;-90
2023/12/22 20:09:51;;;;;;;3.13;1.60;;;;;;;;;;6191104;23;20015;-90
2023/12/22 20:15:41;;;;;;;5.72;1.40;;;;;;;;;;6095780;23;20014;-91
2023/12/22 20:18:13;;;;;;;3.55;1.80;;;;;;;;;;6072094;23;20013;-91
2023/12/22 20:20:39;;;;;;;2.88;1.55;;;;;;;;;;6072503;23;20010;-91
2023/12/22 20:23:06;;;;;;;6.13;2.85;;;;;;;;;;6072967;23;20006;-91
2023/12/22 20:25:33;;;;;;;5.50;2.78;;;;;;;;;;6092720;23;20059;-92
2023/12/22 20:28:02;;;;;;;6.78;1.88;;;;;;;;;;6190564;23;20054;-92
2023/12/22 20:30:31;;;;;;;2.55;1.42;;;;;;;;;;6191923;23;20012;-92
2023/12/22 20:33:23;;;;;;;4.30;1.67;;;;;;;;;;6190502;23;20059;-91
2023/12/22 20:35:49;;;;;;;4.53;2.05;;;;;;;;;;6191448;23;20421;-92
2023/12/22 20:38:21;;;;;;;2.55;1.40;;;;;;;;;;6193796;23;20095;-92
2023/12/22 20:40:48;;;;;;;4.25;1.80;;;;;;;;;;6191221;23;20009;-91
2023/12/22 20:43:35;;;;;;;4.38;2.28;;;;;;;;;;6190655;23;20008;-91
2023/12/22 20:46:04;;;;;;;4.25;2.20;;;;;;;;;;6216663;23;20016;-94
2023/12/22 20:54:48;;;;;;;3.90;2.15;;;;;;;;;;6221165;23;20012;-96
2023/12/22 21:12:50;;;;;;;3.45;1.90;;;;;;;;;;6223555;22;20035;-93
2023/12/22 21:32:32;;;;;;;10.70;6.85;;;;;;;;;;6222834;22;19979;-95
2023/12/22 21:35:07;;;;;;;14.35;7.88;;;;;;;;;;6190889;23;20000;-96
2023/12/22 21:38:02;;;;;;;13.45;7.22;;;;;;;;;;6193641;23;20061;-94
2023/12/22 21:40:26;;;;;;;6.25;3.70;;;;;;;;;;6219522;23;20001;-95
2023/12/22 22:00:51;;;;;;;11.73;6.18;;;;;;;;;;6227660;22;20028;-95
2023/12/22 22:06:02;;;;;;;10.07;4.78;;;;;;;;;;6228534;22;20032;-91
2023/12/22 22:13:34;;;;;;;4.95;2.83;;;;;;;;;;6208458;22;20017;-93
2023/12/22 22:16:07;;;;;;;2.38;1.60;;;;;;;;;;6191332;23;20020;-92
2023/12/22 22:18:33;;;;;;;2.08;1.83;;;;;;;;;;6205380;23;20048;-94
2023/12/22 22:26:10;;;;;;;1.08;0.60;;;;;;;;;;6210832;22;20114;-93
2023/12/22 22:31:11;;;;;;;1.63;1.10;;;;;;;;;;6182975;23;20032;-92
2023/12/22 22:39:12;;;;;;;2.17;1.35;;;;;;;;;;6199212;22;20028;-92
2023/12/22 22:56:30;;;;;;;2.45;2.20;;;;;;;;;;6227826;22;20056;-93
2023/12/22 22:58:56;;;;;;;1.73;1.27;;;;;;;;;;6165950;23;20021;-92
2023/12/22 23:25:10;;;;;;;2.97;2.60;;;;;;;;;;6260088;23;20082;-96
